sensor_id;sensor_type;location;lat;lon;timestamp;P1;durP1;ratioP1;P2;durP2;ratioP2
23360;SDS011;11852;50.082;18.554;2022-07-18T00:00:06;9.4;;;5.5;;
23360;SDS011;11852;50.082;18.554;2022-07-18T00:01:09;9.9;;;6.0;;
23360;SDS011;11852;50.082;18.554;2022-07-18T00:02:14;10.0;;;6.0;;
23360;SDS011;11852;50.082;18.554;2022-07-18T00:03:22;10.9;;;5.6;;
23360;SDS011;11852;50.082;18.554;2022-07-18T00:04:31;8.8;;;5.8;;
23360;SDS011;11852;50.082;18.554;2022-07-18T00:05:36;8.8;;;5.8;;
23360;SDS011;11852;50.082;18.554;2022-07-18T00:06:44;8.2;;;5.6;;
23360;SDS011;11852;50.082;18.554;2022-07-18T00:07:53;9.7;;;5.9;;
23360;SDS011;11852;50.082;18.554;2022-07-18T00:09:02;9.6;;;6.0;;
23360;SDS011;11852;50.082;18.554;2022-07-18T00:10:09;10.6;;;5.9;;
23360;SDS011;11852;50.082;18.554;2022-07-18T00:11:18;8.9;;;6.1;;
23360;SDS011;11852;50.082;18.554;2022-07-18T00:12:26;9.7;;;6.1;;
23360;SDS011;11852;50.082;18.554;2022-07-18T00:13:34;10.6;;;6.1;;
23360;SDS011;11852;50.082;18.554;2022-07-18T00:14:40;6.8;;;5.4;;
23360;SDS011;11852;50.082;18.554;2022-07-18T00:15:44;7.8;;;5.6;;
23360;SDS011;11852;50.082;18.554;2022-07-18T00:16:49;9.2;;;5.5;;
23360;SDS011;11852;50.082;18.554;2022-07-18T00:17:53;7.5;;;4.8;;
23360;SDS011;11852;50.082;18.554;2022-07-18T00:18:58;8.2;;;4.3;;
23360;SDS011;11852;50.082;18.554;2022-07-18T00:20:08;7.7;;;4.4;;
23360;SDS011;11852;50.082;18.554;2022-07-18T00:21:16;6.4;;;3.8;;
23360;SDS011;11852;50.082;18.554;2022-07-18T00:22:21;7.0;;;4.1;;
23360;SDS011;11852;50.082;18.554;2022-07-18T00:23:30;5.3;;;3.7;;
23360;SDS011;11852;50.082;18.554;2022-07-18T00:24:39;5.5;;;3.7;;
23360;SDS011;11852;50.082;18.554;2022-07-18T00:25:47;6.4;;;3.8;;
23360;SDS011;11852;50.082;18.554;2022-07-18T00:26:52;6.5;;;4.3;;
23360;SDS011;11852;50.082;18.554;2022-07-18T00:27:57;9.4;;;4.9;;
23360;SDS011;11852;50.082;18.554;2022-07-18T00:29:05;8.2;;;4.6;;
23360;SDS011;11852;50.082;18.554;2022-07-18T00:30:14;9.5;;;4.3;;
23360;SDS011;11852;50.082;18.554;2022-07-18T00:31:18;11.2;;;4.7;;
23360;SDS011;11852;50.082;18.554;2022-07-18T00:32:26;10.6;;;4.4;;
23360;SDS011;11852;50.082;18.554;2022-07-18T00:33:35;7.8;;;4.5;;
23360;SDS011;11852;50.082;18.554;2022-07-18T00:34:43;6.3;;;3.9;;
23360;SDS011;11852;50.082;18.554;2022-07-18T00:35:52;11.1;;;4.3;;
23360;SDS011;11852;50.082;18.554;2022-07-18T00:37:00;7.8;;;4.1;;
23360;SDS011;11852;50.082;18.554;2022-07-18T00:38:07;9.6;;;4.3;;
23360;SDS011;11852;50.082;18.554;2022-07-18T00:39:15;7.8;;;4.5;;
23360;SDS011;11852;50.082;18.554;2022-07-18T00:40:23;8.7;;;5.1;;
23360;SDS011;11852;50.082;18.554;2022-07-18T00:41:31;8.9;;;4.5;;
23360;SDS011;11852;50.082;18.554;2022-07-18T00:42:39;11.2;;;5.3;;
23360;SDS011;11852;50.082;18.554;2022-07-18T00:43:48;7.2;;;4.1;;
23360;SDS011;11852;50.082;18.554;2022-07-18T00:44:54;9.2;;;4.4;;
23360;SDS011;11852;50.082;18.554;2022-07-18T00:45:58;8.9;;;5.0;;
23360;SDS011;11852;50.082;18.554;2022-07-18T00:47:03;7.8;;;4.5;;
23360;SDS011;11852;50.082;18.554;2022-07-18T00:48:07;7.1;;;4.3;;
23360;SDS011;11852;50.082;18.554;2022-07-18T00:49:12;7.4;;;4.2;;
23360;SDS011;11852;50.082;18.554;2022-07-18T00:50:20;8.6;;;4.5;;
23360;SDS011;11852;50.082;18.554;2022-07-18T00:51:26;8.7;;;4.9;;
23360;SDS011;11852;50.082;18.554;2022-07-18T00:52:35;8.2;;;4.5;;
23360;SDS011;11852;50.082;18.554;2022-07-18T00:53:44;10.8;;;4.6;;
23360;SDS011;11852;50.082;18.554;2022-07-18T00:54:48;8.1;;;4.4;;
23360;SDS011;11852;50.082;18.554;2022-07-18T00:55:56;10.3;;;4.8;;
23360;SDS011;11852;50.082;18.554;2022-07-18T00:57:05;8.2;;;4.5;;
23360;SDS011;11852;50.082;18.554;2022-07-18T00:58:12;8.4;;;4.0;;
23360;SDS011;11852;50.082;18.554;2022-07-18T00:59:19;9.1;;;3.8;;
23360;SDS011;11852;50.082;18.554;2022-07-18T01:00:33;7.1;;;3.3;;
23360;SDS011;11852;50.082;18.554;2022-07-18T01:01:44;8.7;;;3.7;;
23360;SDS011;11852;50.082;18.554;2022-07-18T01:02:53;7.6;;;3.7;;
23360;SDS011;11852;50.082;18.554;2022-07-18T01:04:01;6.1;;;3.3;;
23360;SDS011;11852;50.082;18.554;2022-07-18T01:05:11;8.3;;;3.8;;
23360;SDS011;11852;50.082;18.554;2022-07-18T01:06:17;7.7;;;4.2;;
23360;SDS011;11852;50.082;18.554;2022-07-18T01:07:25;10.9;;;5.4;;
23360;SDS011;11852;50.082;18.554;2022-07-18T01:08:34;12.1;;;5.5;;
23360;SDS011;11852;50.082;18.554;2022-07-18T01:09:43;13.2;;;5.9;;
23360;SDS011;11852;50.082;18.554;2022-07-18T01:10:51;11.6;;;6.1;;
23360;SDS011;11852;50.082;18.554;2022-07-18T01:11:56;12.0;;;5.9;;
23360;SDS011;11852;50.082;18.554;2022-07-18T01:13:01;9.8;;;5.4;;
23360;SDS011;11852;50.082;18.554;2022-07-18T01:14:06;12.4;;;5.8;;
23360;SDS011;11852;50.082;18.554;2022-07-18T01:15:09;9.0;;;5.1;;
23360;SDS011;11852;50.082;18.554;2022-07-18T01:16:14;10.2;;;5.3;;
23360;SDS011;11852;50.082;18.554;2022-07-18T01:17:18;8.8;;;5.1;;
23360;SDS011;11852;50.082;18.554;2022-07-18T01:18:23;9.0;;;5.3;;
23360;SDS011;11852;50.082;18.554;2022-07-18T01:19:32;9.5;;;5.1;;
23360;SDS011;11852;50.082;18.554;2022-07-18T01:20:36;11.1;;;5.5;;
23360;SDS011;11852;50.082;18.554;2022-07-18T01:21:45;10.0;;;5.6;;
23360;SDS011;11852;50.082;18.554;2022-07-18T01:22:51;9.7;;;5.1;;
23360;SDS011;11852;50.082;18.554;2022-07-18T01:23:56;10.0;;;5.1;;
23360;SDS011;11852;50.082;18.554;2022-07-18T01:25:01;10.0;;;5.1;;
23360;SDS011;11852;50.082;18.554;2022-07-18T01:26:05;8.2;;;4.9;;
23360;SDS011;11852;50.082;18.554;2022-07-18T01:27:16;9.9;;;5.5;;
23360;SDS011;11852;50.082;18.554;2022-07-18T01:28:25;10.8;;;5.1;;
23360;SDS011;11852;50.082;18.554;2022-07-18T01:29:29;8.8;;;5.2;;
23360;SDS011;11852;50.082;18.554;2022-07-18T01:30:34;11.8;;;5.1;;
23360;SDS011;11852;50.082;18.554;2022-07-18T01:31:42;9.9;;;4.8;;
23360;SDS011;11852;50.082;18.554;2022-07-18T01:34:03;9.4;;;5.0;;
23360;SDS011;11852;50.082;18.554;2022-07-18T01:35:11;9.3;;;5.6;;
23360;SDS011;11852;50.082;18.554;2022-07-18T01:36:20;8.6;;;5.1;;
23360;SDS011;11852;50.082;18.554;2022-07-18T01:37:27;9.5;;;4.9;;
23360;SDS011;11852;50.082;18.554;2022-07-18T01:38:35;12.1;;;4.9;;
23360;SDS011;11852;50.082;18.554;2022-07-18T01:39:44;7.4;;;4.8;;
23360;SDS011;11852;50.082;18.554;2022-07-18T01:40:47;9.6;;;6.1;;
23360;SDS011;11852;50.082;18.554;2022-07-18T01:41:56;10.2;;;6.2;;
23360;SDS011;11852;50.082;18.554;2022-07-18T01:43:04;8.4;;;5.2;;
23360;SDS011;11852;50.082;18.554;2022-07-18T01:44:10;10.2;;;5.0;;
23360;SDS011;11852;50.082;18.554;2022-07-18T01:45:15;7.6;;;5.3;;
23360;SDS011;11852;50.082;18.554;2022-07-18T01:46:23;11.9;;;6.4;;
23360;SDS011;11852;50.082;18.554;2022-07-18T01:47:31;12.3;;;6.5;;
23360;SDS011;11852;50.082;18.554;2022-07-18T01:48:39;12.3;;;6.5;;
23360;SDS011;11852;50.082;18.554;2022-07-18T01:49:43;12.8;;;7.2;;
23360;SDS011;11852;50.082;18.554;2022-07-18T01:50:48;13.2;;;6.7;;
23360;SDS011;11852;50.082;18.554;2022-07-18T01:51:53;9.4;;;5.9;;
23360;SDS011;11852;50.082;18.554;2022-07-18T01:52:56;12.6;;;6.4;;
23360;SDS011;11852;50.082;18.554;2022-07-18T01:54:01;11.2;;;6.0;;
23360;SDS011;11852;50.082;18.554;2022-07-18T01:55:06;11.8;;;6.2;;
23360;SDS011;11852;50.082;18.554;2022-07-18T01:56:11;10.1;;;5.6;;
23360;SDS011;11852;50.082;18.554;2022-07-18T01:57:18;10.6;;;5.8;;
23360;SDS011;11852;50.082;18.554;2022-07-18T01:58:22;11.1;;;5.8;;
23360;SDS011;11852;50.082;18.554;2022-07-18T01:59:31;9.4;;;5.9;;
23360;SDS011;11852;50.082;18.554;2022-07-18T02:00:39;11.8;;;6.1;;
23360;SDS011;11852;50.082;18.554;2022-07-18T02:01:48;10.2;;;5.8;;
23360;SDS011;11852;50.082;18.554;2022-07-18T02:02:57;10.6;;;5.4;;
23360;SDS011;11852;50.082;18.554;2022-07-18T02:04:05;10.7;;;5.9;;
23360;SDS011;11852;50.082;18.554;2022-07-18T02:05:13;10.8;;;6.0;;
23360;SDS011;11852;50.082;18.554;2022-07-18T02:06:21;11.5;;;6.1;;
23360;SDS011;11852;50.082;18.554;2022-07-18T02:07:33;12.6;;;5.9;;
23360;SDS011;11852;50.082;18.554;2022-07-18T02:08:42;10.1;;;5.9;;
23360;SDS011;11852;50.082;18.554;2022-07-18T02:09:51;10.7;;;6.0;;
23360;SDS011;11852;50.082;18.554;2022-07-18T02:10:59;10.8;;;6.0;;
23360;SDS011;11852;50.082;18.554;2022-07-18T02:12:08;9.9;;;5.8;;
23360;SDS011;11852;50.082;18.554;2022-07-18T02:13:12;10.2;;;5.5;;
23360;SDS011;11852;50.082;18.554;2022-07-18T02:14:17;9.5;;;6.0;;
23360;SDS011;11852;50.082;18.554;2022-07-18T02:15:21;8.8;;;5.0;;
23360;SDS011;11852;50.082;18.554;2022-07-18T02:16:26;11.1;;;5.8;;
23360;SDS011;11852;50.082;18.554;2022-07-18T02:17:30;8.7;;;5.1;;
23360;SDS011;11852;50.082;18.554;2022-07-18T02:18:35;8.3;;;4.6;;
23360;SDS011;11852;50.082;18.554;2022-07-18T02:19:39;9.6;;;4.6;;
23360;SDS011;11852;50.082;18.554;2022-07-18T02:20:44;7.0;;;4.6;;
23360;SDS011;11852;50.082;18.554;2022-07-18T02:21:48;12.7;;;4.7;;
23360;SDS011;11852;50.082;18.554;2022-07-18T02:22:57;7.6;;;4.6;;
23360;SDS011;11852;50.082;18.554;2022-07-18T02:24:01;9.4;;;5.1;;
23360;SDS011;11852;50.082;18.554;2022-07-18T02:25:06;7.2;;;4.8;;
23360;SDS011;11852;50.082;18.554;2022-07-18T02:26:11;8.8;;;4.7;;
23360;SDS011;11852;50.082;18.554;2022-07-18T02:27:15;8.1;;;4.8;;
23360;SDS011;11852;50.082;18.554;2022-07-18T02:28:20;9.4;;;5.5;;
23360;SDS011;11852;50.082;18.554;2022-07-18T02:29:25;9.9;;;5.0;;
23360;SDS011;11852;50.082;18.554;2022-07-18T02:30:30;10.2;;;4.6;;
23360;SDS011;11852;50.082;18.554;2022-07-18T02:31:34;9.0;;;4.9;;
23360;SDS011;11852;50.082;18.554;2022-07-18T02:32:39;12.6;;;5.8;;
23360;SDS011;11852;50.082;18.554;2022-07-18T02:33:43;12.8;;;6.1;;
23360;SDS011;11852;50.082;18.554;2022-07-18T02:34:48;11.8;;;6.2;;
23360;SDS011;11852;50.082;18.554;2022-07-18T02:35:53;14.2;;;6.4;;
23360;SDS011;11852;50.082;18.554;2022-07-18T02:36:57;10.6;;;6.0;;
23360;SDS011;11852;50.082;18.554;2022-07-18T02:38:05;11.2;;;6.1;;
23360;SDS011;11852;50.082;18.554;2022-07-18T02:39:13;12.1;;;6.0;;
23360;SDS011;11852;50.082;18.554;2022-07-18T02:40:20;10.5;;;6.1;;
23360;SDS011;11852;50.082;18.554;2022-07-18T02:41:29;10.3;;;5.3;;
23360;SDS011;11852;50.082;18.554;2022-07-18T02:42:33;9.4;;;5.6;;
23360;SDS011;11852;50.082;18.554;2022-07-18T02:43:37;10.9;;;6.2;;
23360;SDS011;11852;50.082;18.554;2022-07-18T02:44:46;12.1;;;5.8;;
23360;SDS011;11852;50.082;18.554;2022-07-18T02:45:54;16.9;;;6.3;;
23360;SDS011;11852;50.082;18.554;2022-07-18T02:47:04;12.2;;;6.9;;
23360;SDS011;11852;50.082;18.554;2022-07-18T02:48:12;13.8;;;6.1;;
23360;SDS011;11852;50.082;18.554;2022-07-18T02:49:22;13.8;;;6.1;;
23360;SDS011;11852;50.082;18.554;2022-07-18T02:50:27;15.2;;;6.6;;
23360;SDS011;11852;50.082;18.554;2022-07-18T02:51:31;13.3;;;6.5;;
23360;SDS011;11852;50.082;18.554;2022-07-18T02:52:38;10.9;;;6.0;;
23360;SDS011;11852;50.082;18.554;2022-07-18T02:53:42;9.8;;;6.0;;
23360;SDS011;11852;50.082;18.554;2022-07-18T02:54:50;10.7;;;5.7;;
23360;SDS011;11852;50.082;18.554;2022-07-18T02:55:54;8.4;;;4.8;;
23360;SDS011;11852;50.082;18.554;2022-07-18T02:56:58;9.2;;;4.3;;
23360;SDS011;11852;50.082;18.554;2022-07-18T02:58:03;11.8;;;4.8;;
23360;SDS011;11852;50.082;18.554;2022-07-18T02:59:11;8.5;;;4.6;;
23360;SDS011;11852;50.082;18.554;2022-07-18T03:00:19;12.1;;;4.7;;
23360;SDS011;11852;50.082;18.554;2022-07-18T03:01:23;12.5;;;4.7;;
23360;SDS011;11852;50.082;18.554;2022-07-18T03:02:27;6.9;;;4.0;;
23360;SDS011;11852;50.082;18.554;2022-07-18T03:03:36;8.9;;;4.2;;
23360;SDS011;11852;50.082;18.554;2022-07-18T03:04:40;8.1;;;4.6;;
23360;SDS011;11852;50.082;18.554;2022-07-18T03:05:45;9.2;;;4.4;;
23360;SDS011;11852;50.082;18.554;2022-07-18T03:06:50;8.1;;;3.9;;
23360;SDS011;11852;50.082;18.554;2022-07-18T03:07:55;8.1;;;4.0;;
23360;SDS011;11852;50.082;18.554;2022-07-18T03:09:00;8.5;;;3.9;;
23360;SDS011;11852;50.082;18.554;2022-07-18T03:10:05;9.8;;;4.2;;
23360;SDS011;11852;50.082;18.554;2022-07-18T03:11:09;7.7;;;4.2;;
23360;SDS011;11852;50.082;18.554;2022-07-18T03:12:14;7.9;;;3.8;;
23360;SDS011;11852;50.082;18.554;2022-07-18T03:13:19;7.9;;;3.8;;
23360;SDS011;11852;50.082;18.554;2022-07-18T03:14:23;7.1;;;4.1;;
23360;SDS011;11852;50.082;18.554;2022-07-18T03:15:28;10.3;;;4.4;;
23360;SDS011;11852;50.082;18.554;2022-07-18T03:16:32;6.7;;;3.7;;
23360;SDS011;11852;50.082;18.554;2022-07-18T03:17:40;9.2;;;4.4;;
23360;SDS011;11852;50.082;18.554;2022-07-18T03:18:49;8.2;;;3.8;;
23360;SDS011;11852;50.082;18.554;2022-07-18T03:19:55;10.6;;;4.1;;
23360;SDS011;11852;50.082;18.554;2022-07-18T03:20:59;6.1;;;3.5;;
23360;SDS011;11852;50.082;18.554;2022-07-18T03:22:08;7.3;;;3.4;;
23360;SDS011;11852;50.082;18.554;2022-07-18T03:23:13;5.7;;;3.6;;
23360;SDS011;11852;50.082;18.554;2022-07-18T03:24:21;8.3;;;3.5;;
23360;SDS011;11852;50.082;18.554;2022-07-18T03:25:26;9.3;;;4.3;;
23360;SDS011;11852;50.082;18.554;2022-07-18T03:26:30;7.3;;;3.7;;
23360;SDS011;11852;50.082;18.554;2022-07-18T03:27:36;7.6;;;3.6;;
23360;SDS011;11852;50.082;18.554;2022-07-18T03:28:44;5.7;;;3.5;;
23360;SDS011;11852;50.082;18.554;2022-07-18T03:29:53;6.8;;;3.9;;
23360;SDS011;11852;50.082;18.554;2022-07-18T03:31:01;7.4;;;3.5;;
23360;SDS011;11852;50.082;18.554;2022-07-18T03:32:05;9.5;;;4.0;;
23360;SDS011;11852;50.082;18.554;2022-07-18T03:33:09;5.7;;;3.4;;
23360;SDS011;11852;50.082;18.554;2022-07-18T03:34:14;7.0;;;3.6;;
23360;SDS011;11852;50.082;18.554;2022-07-18T03:35:19;6.8;;;3.4;;
23360;SDS011;11852;50.082;18.554;2022-07-18T03:36:24;6.9;;;3.8;;
23360;SDS011;11852;50.082;18.554;2022-07-18T03:37:28;8.1;;;3.6;;
23360;SDS011;11852;50.082;18.554;2022-07-18T03:38:33;9.9;;;3.9;;
23360;SDS011;11852;50.082;18.554;2022-07-18T03:39:41;7.9;;;3.9;;
23360;SDS011;11852;50.082;18.554;2022-07-18T03:40:49;8.7;;;4.1;;
23360;SDS011;11852;50.082;18.554;2022-07-18T03:41:54;7.4;;;3.6;;
23360;SDS011;11852;50.082;18.554;2022-07-18T03:43:02;7.2;;;3.5;;
23360;SDS011;11852;50.082;18.554;2022-07-18T03:44:12;7.1;;;4.0;;
23360;SDS011;11852;50.082;18.554;2022-07-18T03:45:20;9.0;;;4.3;;
23360;SDS011;11852;50.082;18.554;2022-07-18T03:46:29;7.7;;;4.1;;
23360;SDS011;11852;50.082;18.554;2022-07-18T03:47:34;9.0;;;4.6;;
23360;SDS011;11852;50.082;18.554;2022-07-18T03:48:42;8.8;;;4.6;;
23360;SDS011;11852;50.082;18.554;2022-07-18T03:49:46;10.2;;;5.1;;
23360;SDS011;11852;50.082;18.554;2022-07-18T03:50:54;8.7;;;4.9;;
23360;SDS011;11852;50.082;18.554;2022-07-18T03:52:02;6.6;;;4.7;;
23360;SDS011;11852;50.082;18.554;2022-07-18T03:53:07;7.6;;;4.3;;
23360;SDS011;11852;50.082;18.554;2022-07-18T03:54:16;8.0;;;4.5;;
23360;SDS011;11852;50.082;18.554;2022-07-18T03:55:20;6.9;;;3.9;;
23360;SDS011;11852;50.082;18.554;2022-07-18T03:56:24;8.7;;;4.4;;
23360;SDS011;11852;50.082;18.554;2022-07-18T03:57:33;9.2;;;4.3;;
23360;SDS011;11852;50.082;18.554;2022-07-18T03:58:41;7.2;;;4.2;;
23360;SDS011;11852;50.082;18.554;2022-07-18T03:59:49;6.7;;;3.9;;
23360;SDS011;11852;50.082;18.554;2022-07-18T04:00:57;7.4;;;3.6;;
23360;SDS011;11852;50.082;18.554;2022-07-18T04:02:01;9.3;;;4.3;;
23360;SDS011;11852;50.082;18.554;2022-07-18T04:03:06;6.5;;;3.5;;
23360;SDS011;11852;50.082;18.554;2022-07-18T04:04:10;9.0;;;4.2;;
23360;SDS011;11852;50.082;18.554;2022-07-18T04:05:15;6.8;;;4.1;;
23360;SDS011;11852;50.082;18.554;2022-07-18T04:06:23;7.9;;;3.5;;
23360;SDS011;11852;50.082;18.554;2022-07-18T04:07:31;7.0;;;4.3;;
23360;SDS011;11852;50.082;18.554;2022-07-18T04:08:39;5.9;;;3.9;;
23360;SDS011;11852;50.082;18.554;2022-07-18T04:09:44;9.6;;;4.0;;
23360;SDS011;11852;50.082;18.554;2022-07-18T04:10:52;6.8;;;3.8;;
23360;SDS011;11852;50.082;18.554;2022-07-18T04:11:59;8.3;;;4.1;;
23360;SDS011;11852;50.082;18.554;2022-07-18T04:13:08;8.0;;;4.0;;
23360;SDS011;11852;50.082;18.554;2022-07-18T04:14:12;7.3;;;4.0;;
23360;SDS011;11852;50.082;18.554;2022-07-18T04:15:21;8.6;;;4.5;;
23360;SDS011;11852;50.082;18.554;2022-07-18T04:16:29;8.9;;;3.7;;
23360;SDS011;11852;50.082;18.554;2022-07-18T04:17:35;8.1;;;4.4;;
23360;SDS011;11852;50.082;18.554;2022-07-18T04:18:40;7.5;;;4.5;;
23360;SDS011;11852;50.082;18.554;2022-07-18T04:19:44;9.7;;;5.0;;
23360;SDS011;11852;50.082;18.554;2022-07-18T04:20:48;9.4;;;5.0;;
23360;SDS011;11852;50.082;18.554;2022-07-18T04:21:53;10.0;;;5.3;;
23360;SDS011;11852;50.082;18.554;2022-07-18T04:23:02;9.9;;;5.3;;
23360;SDS011;11852;50.082;18.554;2022-07-18T04:24:09;9.7;;;5.4;;
23360;SDS011;11852;50.082;18.554;2022-07-18T04:25:15;8.6;;;5.1;;
23360;SDS011;11852;50.082;18.554;2022-07-18T04:26:19;9.5;;;4.6;;
23360;SDS011;11852;50.082;18.554;2022-07-18T04:27:24;8.9;;;4.9;;
23360;SDS011;11852;50.082;18.554;2022-07-18T04:28:33;8.9;;;4.0;;
23360;SDS011;11852;50.082;18.554;2022-07-18T04:29:42;9.6;;;4.8;;
23360;SDS011;11852;50.082;18.554;2022-07-18T04:30:50;8.4;;;5.0;;
23360;SDS011;11852;50.082;18.554;2022-07-18T04:31:58;8.8;;;4.7;;
23360;SDS011;11852;50.082;18.554;2022-07-18T04:33:03;9.4;;;4.7;;
23360;SDS011;11852;50.082;18.554;2022-07-18T04:34:11;9.3;;;5.0;;
23360;SDS011;11852;50.082;18.554;2022-07-18T04:35:16;7.6;;;4.6;;
23360;SDS011;11852;50.082;18.554;2022-07-18T04:36:24;9.2;;;5.2;;
23360;SDS011;11852;50.082;18.554;2022-07-18T04:37:32;8.9;;;5.1;;
23360;SDS011;11852;50.082;18.554;2022-07-18T04:38:37;10.5;;;5.8;;
23360;SDS011;11852;50.082;18.554;2022-07-18T04:39:41;7.5;;;4.9;;
23360;SDS011;11852;50.082;18.554;2022-07-18T04:40:50;11.4;;;6.7;;
23360;SDS011;11852;50.082;18.554;2022-07-18T04:41:56;10.8;;;5.6;;
23360;SDS011;11852;50.082;18.554;2022-07-18T04:43:01;8.2;;;5.9;;
23360;SDS011;11852;50.082;18.554;2022-07-18T04:44:04;12.6;;;6.1;;
23360;SDS011;11852;50.082;18.554;2022-07-18T04:45:13;13.8;;;7.3;;
23360;SDS011;11852;50.082;18.554;2022-07-18T04:46:18;16.6;;;7.4;;
23360;SDS011;11852;50.082;18.554;2022-07-18T04:47:27;13.9;;;7.9;;
23360;SDS011;11852;50.082;18.554;2022-07-18T04:48:33;13.4;;;8.8;;
23360;SDS011;11852;50.082;18.554;2022-07-18T04:49:41;13.4;;;8.9;;
23360;SDS011;11852;50.082;18.554;2022-07-18T04:50:46;13.8;;;8.1;;
23360;SDS011;11852;50.082;18.554;2022-07-18T04:51:55;12.0;;;8.0;;
23360;SDS011;11852;50.082;18.554;2022-07-18T04:53:03;13.7;;;7.6;;
23360;SDS011;11852;50.082;18.554;2022-07-18T04:54:12;13.9;;;7.4;;
23360;SDS011;11852;50.082;18.554;2022-07-18T04:55:21;13.1;;;6.4;;
23360;SDS011;11852;50.082;18.554;2022-07-18T04:56:26;14.2;;;6.5;;
23360;SDS011;11852;50.082;18.554;2022-07-18T04:57:31;14.3;;;7.0;;
23360;SDS011;11852;50.082;18.554;2022-07-18T04:58:39;12.0;;;6.2;;
23360;SDS011;11852;50.082;18.554;2022-07-18T04:59:49;11.5;;;6.0;;
23360;SDS011;11852;50.082;18.554;2022-07-18T05:00:57;10.8;;;5.7;;
23360;SDS011;11852;50.082;18.554;2022-07-18T05:02:08;9.8;;;6.2;;
23360;SDS011;11852;50.082;18.554;2022-07-18T05:03:13;12.9;;;6.6;;
23360;SDS011;11852;50.082;18.554;2022-07-18T05:04:20;9.6;;;6.0;;
23360;SDS011;11852;50.082;18.554;2022-07-18T05:05:24;10.4;;;6.5;;
23360;SDS011;11852;50.082;18.554;2022-07-18T05:06:32;13.5;;;8.7;;
23360;SDS011;11852;50.082;18.554;2022-07-18T05:07:37;14.0;;;8.0;;
23360;SDS011;11852;50.082;18.554;2022-07-18T05:08:41;14.9;;;8.1;;
23360;SDS011;11852;50.082;18.554;2022-07-18T05:09:46;11.3;;;6.9;;
23360;SDS011;11852;50.082;18.554;2022-07-18T05:10:50;11.3;;;6.9;;
23360;SDS011;11852;50.082;18.554;2022-07-18T05:11:59;13.7;;;7.0;;
23360;SDS011;11852;50.082;18.554;2022-07-18T05:13:04;14.0;;;7.4;;
23360;SDS011;11852;50.082;18.554;2022-07-18T05:14:09;8.6;;;5.8;;
23360;SDS011;11852;50.082;18.554;2022-07-18T05:15:14;13.1;;;6.4;;
23360;SDS011;11852;50.082;18.554;2022-07-18T05:16:19;11.4;;;5.5;;
23360;SDS011;11852;50.082;18.554;2022-07-18T05:17:25;12.0;;;5.2;;
23360;SDS011;11852;50.082;18.554;2022-07-18T05:18:34;9.8;;;5.5;;
23360;SDS011;11852;50.082;18.554;2022-07-18T05:19:39;9.7;;;5.2;;
23360;SDS011;11852;50.082;18.554;2022-07-18T05:20:44;8.6;;;4.9;;
23360;SDS011;11852;50.082;18.554;2022-07-18T05:21:48;9.3;;;5.2;;
23360;SDS011;11852;50.082;18.554;2022-07-18T05:22:53;12.3;;;6.1;;
23360;SDS011;11852;50.082;18.554;2022-07-18T05:23:57;9.1;;;5.4;;
23360;SDS011;11852;50.082;18.554;2022-07-18T05:25:03;11.9;;;5.6;;
23360;SDS011;11852;50.082;18.554;2022-07-18T05:26:09;10.9;;;5.7;;
23360;SDS011;11852;50.082;18.554;2022-07-18T05:27:14;12.4;;;6.0;;
23360;SDS011;11852;50.082;18.554;2022-07-18T05:28:19;10.5;;;5.0;;
23360;SDS011;11852;50.082;18.554;2022-07-18T05:29:28;11.7;;;5.8;;
23360;SDS011;11852;50.082;18.554;2022-07-18T05:30:37;12.0;;;5.8;;
23360;SDS011;11852;50.082;18.554;2022-07-18T05:31:45;10.4;;;5.4;;
23360;SDS011;11852;50.082;18.554;2022-07-18T05:32:50;10.0;;;5.4;;
23360;SDS011;11852;50.082;18.554;2022-07-18T05:33:54;15.1;;;5.7;;
23360;SDS011;11852;50.082;18.554;2022-07-18T05:34:58;10.1;;;4.9;;
23360;SDS011;11852;50.082;18.554;2022-07-18T05:36:03;11.1;;;5.3;;
23360;SDS011;11852;50.082;18.554;2022-07-18T05:37:10;10.6;;;5.3;;
23360;SDS011;11852;50.082;18.554;2022-07-18T05:38:19;13.1;;;5.3;;
23360;SDS011;11852;50.082;18.554;2022-07-18T05:39:24;12.2;;;5.5;;
23360;SDS011;11852;50.082;18.554;2022-07-18T05:40:29;12.5;;;5.6;;
23360;SDS011;11852;50.082;18.554;2022-07-18T05:41:35;10.9;;;5.4;;
23360;SDS011;11852;50.082;18.554;2022-07-18T05:42:40;9.3;;;4.9;;
23360;SDS011;11852;50.082;18.554;2022-07-18T05:43:44;11.2;;;5.2;;
23360;SDS011;11852;50.082;18.554;2022-07-18T05:44:49;9.4;;;4.7;;
23360;SDS011;11852;50.082;18.554;2022-07-18T05:45:53;13.0;;;5.7;;
23360;SDS011;11852;50.082;18.554;2022-07-18T05:47:01;10.4;;;4.8;;
23360;SDS011;11852;50.082;18.554;2022-07-18T05:48:05;8.8;;;4.1;;
23360;SDS011;11852;50.082;18.554;2022-07-18T05:49:10;8.8;;;4.3;;
23360;SDS011;11852;50.082;18.554;2022-07-18T05:50:14;6.7;;;3.9;;
23360;SDS011;11852;50.082;18.554;2022-07-18T05:51:23;7.7;;;4.3;;
23360;SDS011;11852;50.082;18.554;2022-07-18T05:52:32;9.7;;;4.7;;
23360;SDS011;11852;50.082;18.554;2022-07-18T05:53:37;8.2;;;4.7;;
23360;SDS011;11852;50.082;18.554;2022-07-18T05:54:41;9.3;;;4.5;;
23360;SDS011;11852;50.082;18.554;2022-07-18T05:55:46;8.5;;;4.1;;
23360;SDS011;11852;50.082;18.554;2022-07-18T05:56:51;9.3;;;4.2;;
23360;SDS011;11852;50.082;18.554;2022-07-18T05:57:55;10.5;;;4.7;;
23360;SDS011;11852;50.082;18.554;2022-07-18T05:58:59;9.4;;;4.2;;
23360;SDS011;11852;50.082;18.554;2022-07-18T06:00:09;8.5;;;4.1;;
23360;SDS011;11852;50.082;18.554;2022-07-18T06:01:17;8.4;;;4.6;;
23360;SDS011;11852;50.082;18.554;2022-07-18T06:02:21;10.1;;;4.3;;
23360;SDS011;11852;50.082;18.554;2022-07-18T06:03:26;7.9;;;3.9;;
23360;SDS011;11852;50.082;18.554;2022-07-18T06:04:30;10.2;;;4.1;;
23360;SDS011;11852;50.082;18.554;2022-07-18T06:05:34;10.2;;;4.1;;
23360;SDS011;11852;50.082;18.554;2022-07-18T06:06:39;10.0;;;5.2;;
23360;SDS011;11852;50.082;18.554;2022-07-18T06:07:44;10.0;;;4.9;;
23360;SDS011;11852;50.082;18.554;2022-07-18T06:08:50;9.3;;;4.5;;
23360;SDS011;11852;50.082;18.554;2022-07-18T06:09:56;12.2;;;5.3;;
23360;SDS011;11852;50.082;18.554;2022-07-18T06:11:05;15.9;;;6.3;;
23360;SDS011;11852;50.082;18.554;2022-07-18T06:12:15;13.3;;;5.8;;
23360;SDS011;11852;50.082;18.554;2022-07-18T06:13:20;12.5;;;5.3;;
23360;SDS011;11852;50.082;18.554;2022-07-18T06:14:28;15.9;;;5.5;;
23360;SDS011;11852;50.082;18.554;2022-07-18T06:15:32;11.7;;;5.7;;
23360;SDS011;11852;50.082;18.554;2022-07-18T06:16:42;12.7;;;5.4;;
23360;SDS011;11852;50.082;18.554;2022-07-18T06:17:52;13.3;;;5.4;;
23360;SDS011;11852;50.082;18.554;2022-07-18T06:18:56;13.4;;;5.9;;
23360;SDS011;11852;50.082;18.554;2022-07-18T06:20:03;10.2;;;5.4;;
23360;SDS011;11852;50.082;18.554;2022-07-18T06:21:08;15.2;;;5.8;;
23360;SDS011;11852;50.082;18.554;2022-07-18T06:22:16;13.6;;;5.4;;
23360;SDS011;11852;50.082;18.554;2022-07-18T06:23:29;11.2;;;5.4;;
23360;SDS011;11852;50.082;18.554;2022-07-18T06:24:34;10.5;;;4.5;;
23360;SDS011;11852;50.082;18.554;2022-07-18T06:25:39;9.8;;;4.8;;
23360;SDS011;11852;50.082;18.554;2022-07-18T06:26:44;7.7;;;4.6;;
23360;SDS011;11852;50.082;18.554;2022-07-18T06:27:49;14.0;;;5.2;;
23360;SDS011;11852;50.082;18.554;2022-07-18T06:28:55;11.9;;;5.1;;
23360;SDS011;11852;50.082;18.554;2022-07-18T06:30:03;8.9;;;4.5;;
23360;SDS011;11852;50.082;18.554;2022-07-18T06:31:07;8.1;;;3.7;;
23360;SDS011;11852;50.082;18.554;2022-07-18T06:32:17;8.3;;;3.6;;
23360;SDS011;11852;50.082;18.554;2022-07-18T06:33:23;10.4;;;3.8;;
23360;SDS011;11852;50.082;18.554;2022-07-18T06:34:40;8.6;;;3.5;;
23360;SDS011;11852;50.082;18.554;2022-07-18T06:35:45;11.3;;;3.9;;
23360;SDS011;11852;50.082;18.554;2022-07-18T06:36:49;8.5;;;3.5;;
23360;SDS011;11852;50.082;18.554;2022-07-18T06:37:54;8.3;;;3.1;;
23360;SDS011;11852;50.082;18.554;2022-07-18T06:39:00;6.4;;;3.3;;
23360;SDS011;11852;50.082;18.554;2022-07-18T06:40:04;8.7;;;3.7;;
23360;SDS011;11852;50.082;18.554;2022-07-18T06:41:09;9.3;;;3.4;;
23360;SDS011;11852;50.082;18.554;2022-07-18T06:42:13;6.7;;;2.9;;
23360;SDS011;11852;50.082;18.554;2022-07-18T06:43:22;9.2;;;2.2;;
23360;SDS011;11852;50.082;18.554;2022-07-18T06:44:30;7.6;;;2.4;;